sim
Sign-in with your pilot id or email,
or register
Callsign
Passwort

Schedule Details

Flight Number: OEO3135
Departure: Newcastle Airport (EGNT) at 17:10
Arrival: Munich Airport (EDDM) at 19:15

Weather Information
Getting current METAR information for EGNT 191250Z 06010KT 9999 SCT018 15/10 Q1025
Getting current METAR information for EDDM 191250Z 03005KT 340V080 CAVOK 21/12 Q1019 NOSIG

Schedule Frequency

Route Map